Terminal Aerodrome Forecast
Issued by NWS

Home | Current Version | Previous Version | Graphics & Text | Print | Product List | Glossary On
Versions: 1 2 3 4 5 6 7 8 9 10 11 12 13 14 15 16 17 18 19 20 21 22 23 24 25 26
432
FTUS43 KIWX 092340
TAFSBN
TAF
KSBN 092340Z 1000/1024 30014G20KT 2SM -SHSN SCT015 OVC022
      TEMPO 1000/1004 1SM -SHSN OVC015
     FM100800 30013G21KT 3/4SM -SHSN BLSN OVC010
      TEMPO 1008/1012 1/2SM SHSN BLSN VV005
     FM101300 30014G21KT 2SM -SHSN OVC015=

USA.gov is the U.S. government's official web portal to all federal, state and local government web resources and services.